createdAt,value
2018-01-14T00:00:03.392Z,89.20
2018-01-14T00:00:34.895Z,89.10
2018-01-14T00:01:06.500Z,89.00
2018-01-14T00:01:38.079Z,89.00
2018-01-14T00:02:09.673Z,89.20
2018-01-14T00:02:41.277Z,89.20
2018-01-14T00:03:12.867Z,89.30
2018-01-14T00:03:44.455Z,89.00
2018-01-14T00:04:16.015Z,89.10
2018-01-14T00:04:47.587Z,89.00
2018-01-14T00:05:19.151Z,89.00
2018-01-14T00:05:50.709Z,89.10
2018-01-14T00:06:22.255Z,89.10
2018-01-14T00:06:53.845Z,89.00
2018-01-14T00:07:25.404Z,89.00
2018-01-14T00:07:56.959Z,89.10
2018-01-14T00:08:28.505Z,89.30
2018-01-14T00:09:00.062Z,89.40
2018-01-14T00:09:31.641Z,89.10
2018-01-14T00:10:03.239Z,89.10
2018-01-14T00:10:34.816Z,89.10
2018-01-14T00:11:06.347Z,89.10
2018-01-14T00:11:37.886Z,89.00
2018-01-14T00:12:09.420Z,89.00
2018-01-14T00:12:40.988Z,89.00
2018-01-14T00:13:12.555Z,89.10
2018-01-14T00:13:44.109Z,89.20
2018-01-14T00:14:15.685Z,89.40
2018-01-14T00:14:47.240Z,89.40
2018-01-14T00:15:18.799Z,89.40
2018-01-14T00:15:50.344Z,89.40
2018-01-14T00:16:21.894Z,89.30
2018-01-14T00:16:53.461Z,89.30
2018-01-14T00:17:25.022Z,89.40
2018-01-14T00:17:56.592Z,89.40
2018-01-14T00:18:28.175Z,89.50
2018-01-14T00:18:59.722Z,89.30
2018-01-14T00:19:31.284Z,89.40
2018-01-14T00:20:02.895Z,89.60
2018-01-14T00:20:34.468Z,89.40
2018-01-14T00:21:06.009Z,89.40
2018-01-14T00:21:37.577Z,89.40
2018-01-14T00:22:09.133Z,89.50
2018-01-14T00:22:40.702Z,89.60
2018-01-14T00:23:12.253Z,89.60
2018-01-14T00:23:43.803Z,89.60
2018-01-14T00:24:15.369Z,89.60
2018-01-14T00:24:46.968Z,89.40
2018-01-14T00:25:18.493Z,89.40
2018-01-14T00:25:50.063Z,89.50
2018-01-14T00:26:21.665Z,89.40
2018-01-14T00:26:53.219Z,89.40
2018-01-14T00:27:24.771Z,89.50
2018-01-14T00:27:56.333Z,89.50
2018-01-14T00:28:27.900Z,89.40
2018-01-14T00:28:59.461Z,89.40
2018-01-14T00:29:31.009Z,89.30
2018-01-14T00:30:02.645Z,89.30
2018-01-14T00:30:34.224Z,89.30
2018-01-14T00:31:05.793Z,89.50
2018-01-14T00:31:37.361Z,89.40
2018-01-14T00:32:08.915Z,89.30
2018-01-14T00:32:40.480Z,89.30
2018-01-14T00:33:12.048Z,89.30
2018-01-14T00:33:43.617Z,89.20
2018-01-14T00:34:15.182Z,89.30
2018-01-14T00:34:46.738Z,89.40
2018-01-14T00:35:18.293Z,89.30
2018-01-14T00:35:49.851Z,89.20
2018-01-14T00:36:21.426Z,89.30
2018-01-14T00:36:52.977Z,89.50
2018-01-14T00:37:24.549Z,89.40
2018-01-14T00:37:56.097Z,89.30
2018-01-14T00:38:27.671Z,89.30
2018-01-14T00:38:59.234Z,89.20
2018-01-14T00:39:30.845Z,89.30
2018-01-14T00:40:02.409Z,89.40
2018-01-14T00:40:33.969Z,89.40
2018-01-14T00:41:05.542Z,89.40
2018-01-14T00:41:37.119Z,89.50
2018-01-14T00:42:08.692Z,89.50
2018-01-14T00:42:40.265Z,89.70
2018-01-14T00:43:11.805Z,89.70
2018-01-14T00:43:43.365Z,89.80
2018-01-14T00:44:14.912Z,89.70
2018-01-14T00:44:46.468Z,89.80
2018-01-14T00:45:18.015Z,89.90
2018-01-14T00:45:49.596Z,89.80
2018-01-14T00:46:21.187Z,89.80
2018-01-14T00:46:52.781Z,89.70
2018-01-14T00:47:24.339Z,89.60
2018-01-14T00:47:55.893Z,89.60
2018-01-14T00:48:27.441Z,89.60
2018-01-14T00:48:59.025Z,90.00
2018-01-14T00:49:30.604Z,89.90
2018-01-14T00:50:02.177Z,90.00
2018-01-14T00:50:33.749Z,90.10
2018-01-14T00:51:05.317Z,90.00
2018-01-14T00:51:36.897Z,89.90
2018-01-14T00:52:08.437Z,89.90
2018-01-14T00:52:39.996Z,89.80
2018-01-14T00:53:11.551Z,89.80
2018-01-14T00:53:43.103Z,89.70
2018-01-14T00:54:14.655Z,89.60
2018-01-14T00:54:46.222Z,89.70
2018-01-14T00:55:17.788Z,89.70
2018-01-14T00:55:49.349Z,89.80
2018-01-14T00:56:20.922Z,89.70
2018-01-14T00:56:52.470Z,89.70
2018-01-14T00:57:24.053Z,89.80
2018-01-14T00:57:55.600Z,89.90
2018-01-14T00:58:27.147Z,90.30
2018-01-14T00:58:58.713Z,90.30
2018-01-14T00:59:30.269Z,90.30
2018-01-14T01:00:01.854Z,90.20
2018-01-14T01:00:33.466Z,90.20
2018-01-14T01:01:05.057Z,90.20
2018-01-14T01:01:36.652Z,90.50
2018-01-14T01:02:08.236Z,90.40
2018-01-14T01:02:39.818Z,90.30
2018-01-14T01:03:11.381Z,90.40
2018-01-14T01:03:42.958Z,90.40
2018-01-14T01:04:14.516Z,90.40
2018-01-14T01:04:46.084Z,90.30
2018-01-14T01:05:17.629Z,90.30
2018-01-14T01:05:49.208Z,90.30
2018-01-14T01:06:20.788Z,90.40
2018-01-14T01:06:52.355Z,90.40
2018-01-14T01:07:23.918Z,90.60
2018-01-14T01:07:55.517Z,90.60
2018-01-14T01:08:27.080Z,90.50
2018-01-14T01:08:58.676Z,90.50
2018-01-14T01:09:30.234Z,90.70
2018-01-14T01:10:01.774Z,90.70
2018-01-14T01:10:33.329Z,90.70
2018-01-14T01:11:04.886Z,90.60
2018-01-14T01:11:36.437Z,90.60
2018-01-14T01:12:08.014Z,90.50
2018-01-14T01:12:39.609Z,90.50
2018-01-14T01:13:11.180Z,90.50
2018-01-14T01:13:42.742Z,90.50
2018-01-14T01:14:14.300Z,90.50
2018-01-14T01:14:45.844Z,90.50
2018-01-14T01:15:17.432Z,90.50
2018-01-14T01:15:48.995Z,90.70
2018-01-14T01:16:20.549Z,90.80
2018-01-14T01:16:52.119Z,90.80
2018-01-14T01:17:23.734Z,90.70
2018-01-14T01:17:55.284Z,90.70
2018-01-14T01:18:26.829Z,90.70
2018-01-14T01:18:58.384Z,90.70
2018-01-14T01:19:29.952Z,90.70
2018-01-14T01:20:01.510Z,90.70
2018-01-14T01:20:33.065Z,90.80
2018-01-14T01:21:04.641Z,90.70
2018-01-14T01:21:36.193Z,90.90
2018-01-14T01:22:07.752Z,90.90
2018-01-14T01:22:39.306Z,90.90
2018-01-14T01:23:10.862Z,90.90
2018-01-14T01:23:42.425Z,90.90
2018-01-14T01:24:13.969Z,90.90
2018-01-14T01:24:45.538Z,90.80
2018-01-14T01:25:17.077Z,90.80
2018-01-14T01:25:48.643Z,90.90
2018-01-14T01:26:20.210Z,90.90
2018-01-14T01:26:51.750Z,90.90
2018-01-14T01:27:23.327Z,90.80
2018-01-14T01:27:54.890Z,90.60
2018-01-14T01:28:26.444Z,90.80
2018-01-14T01:28:58.001Z,90.60
2018-01-14T01:29:29.569Z,90.80
2018-01-14T01:30:01.120Z,90.80
2018-01-14T01:30:32.722Z,90.70
2018-01-14T01:31:04.284Z,90.80
2018-01-14T01:31:35.852Z,90.70
2018-01-14T01:32:07.408Z,90.70
2018-01-14T01:32:38.969Z,90.60
2018-01-14T01:33:10.517Z,90.90
2018-01-14T01:33:42.076Z,90.60
2018-01-14T01:34:13.625Z,90.50
2018-01-14T01:34:45.156Z,90.60
2018-01-14T01:35:16.724Z,90.70
2018-01-14T01:35:48.294Z,90.70
2018-01-14T01:36:19.870Z,90.70
2018-01-14T01:36:51.492Z,90.90
2018-01-14T01:37:23.020Z,90.80
2018-01-14T01:37:54.576Z,90.90
2018-01-14T01:38:26.132Z,90.90
2018-01-14T01:38:57.706Z,90.90
2018-01-14T01:39:29.276Z,90.80
2018-01-14T01:40:00.814Z,90.70
2018-01-14T01:40:32.379Z,90.60
2018-01-14T01:41:03.980Z,90.60
2018-01-14T01:41:35.535Z,90.60
2018-01-14T01:42:07.085Z,90.70
2018-01-14T01:42:38.664Z,90.60
2018-01-14T01:43:10.205Z,90.60
2018-01-14T01:43:41.768Z,90.50
2018-01-14T01:44:13.328Z,90.50
2018-01-14T01:44:44.896Z,90.10
2018-01-14T01:45:16.461Z,90.40
2018-01-14T01:45:48.038Z,90.30
2018-01-14T01:46:19.638Z,90.30
2018-01-14T01:46:51.191Z,90.20
2018-01-14T01:47:22.766Z,90.20
2018-01-14T01:47:54.300Z,90.10
2018-01-14T01:48:25.866Z,90.20
2018-01-14T01:48:57.464Z,90.10
2018-01-14T01:49:28.981Z,90.00
2018-01-14T01:50:00.538Z,90.20
2018-01-14T01:50:32.088Z,90.20
2018-01-14T01:51:03.644Z,90.00
2018-01-14T01:51:35.210Z,90.00
2018-01-14T01:52:06.790Z,90.00
2018-01-14T01:52:38.352Z,89.90
2018-01-14T01:53:09.908Z,90.00
2018-01-14T01:53:41.540Z,89.80
2018-01-14T01:54:13.118Z,89.90
2018-01-14T01:54:44.702Z,89.90
2018-01-14T01:55:16.290Z,90.00
2018-01-14T01:55:47.852Z,90.00
2018-01-14T01:56:19.408Z,89.90
2018-01-14T01:56:50.986Z,90.00
2018-01-14T01:57:22.542Z,90.00
2018-01-14T01:57:54.067Z,90.00
2018-01-14T01:58:25.600Z,90.20
2018-01-14T01:58:57.147Z,90.00
2018-01-14T01:59:28.676Z,90.20
2018-01-14T02:00:00.222Z,90.10
2018-01-14T02:00:31.792Z,90.10
2018-01-14T02:01:03.366Z,90.20
2018-01-14T02:01:34.912Z,90.10
2018-01-14T02:02:06.488Z,90.20
2018-01-14T02:02:38.044Z,90.10
2018-01-14T02:03:09.604Z,90.20
2018-01-14T02:03:41.204Z,90.10
2018-01-14T02:04:12.768Z,90.00
2018-01-14T02:04:44.310Z,90.00
2018-01-14T02:05:15.878Z,89.80
2018-01-14T02:05:47.480Z,89.80
2018-01-14T02:06:19.036Z,90.00
2018-01-14T02:06:50.622Z,90.00
2018-01-14T02:07:22.180Z,89.80
2018-01-14T02:07:53.770Z,89.70
2018-01-14T02:08:25.339Z,89.70
2018-01-14T02:08:56.910Z,89.70
2018-01-14T02:09:28.460Z,89.70
2018-01-14T02:10:00.028Z,89.70
2018-01-14T02:10:31.588Z,89.70
2018-01-14T02:11:03.182Z,89.70
2018-01-14T02:11:34.744Z,89.80
2018-01-14T02:12:06.304Z,89.60
2018-01-14T02:12:37.894Z,89.60
2018-01-14T02:13:09.494Z,89.60
2018-01-14T02:13:41.036Z,89.80
2018-01-14T02:14:12.600Z,89.80
2018-01-14T02:14:44.158Z,89.50
2018-01-14T02:15:15.736Z,89.50
2018-01-14T02:15:47.292Z,89.60
2018-01-14T02:16:18.878Z,89.50
2018-01-14T02:16:50.444Z,89.20
2018-01-14T02:17:22.007Z,89.30
2018-01-14T02:17:53.598Z,89.40
2018-01-14T02:18:25.174Z,89.40
2018-01-14T02:18:56.751Z,89.50
2018-01-14T02:19:28.322Z,89.30
2018-01-14T02:19:59.892Z,89.70
2018-01-14T02:20:31.513Z,89.70
2018-01-14T02:21:03.147Z,89.70
2018-01-14T02:21:34.716Z,89.60
2018-01-14T02:22:06.266Z,89.60
2018-01-14T02:22:38.722Z,89.50
2018-01-14T02:23:10.272Z,89.50
2018-01-14T02:23:41.834Z,89.40
2018-01-14T02:24:13.406Z,89.30
2018-01-14T02:24:44.976Z,89.00
2018-01-14T02:25:16.556Z,89.10
2018-01-14T02:25:48.120Z,89.30
2018-01-14T02:26:19.692Z,89.00
2018-01-14T02:26:51.314Z,89.20
2018-01-14T02:27:22.886Z,89.10
2018-01-14T02:27:54.436Z,89.50
2018-01-14T02:28:25.990Z,89.60
2018-01-14T02:28:57.560Z,89.50
2018-01-14T02:29:29.120Z,89.40
2018-01-14T02:30:00.693Z,89.40
2018-01-14T02:30:32.266Z,89.30
2018-01-14T02:31:03.870Z,89.20
2018-01-14T02:31:35.428Z,89.10
2018-01-14T02:32:06.998Z,89.30
2018-01-14T02:32:38.555Z,89.10
2018-01-14T02:33:10.140Z,89.30
2018-01-14T02:33:41.701Z,89.30
2018-01-14T02:34:13.284Z,89.30
2018-01-14T02:34:44.848Z,89.10
2018-01-14T02:35:16.430Z,89.40
2018-01-14T02:35:47.996Z,89.40
2018-01-14T02:36:19.566Z,89.40
2018-01-14T02:36:51.169Z,89.30
2018-01-14T02:37:22.793Z,89.30
2018-01-14T02:37:54.361Z,89.40
2018-01-14T02:38:25.956Z,89.50
2018-01-14T02:38:57.516Z,89.50
2018-01-14T02:39:29.060Z,89.50
2018-01-14T02:40:00.636Z,89.30
2018-01-14T02:40:32.210Z,89.20
2018-01-14T02:41:03.784Z,89.20
2018-01-14T02:41:35.388Z,89.30
2018-01-14T02:42:06.958Z,89.10
2018-01-14T02:42:38.547Z,89.40
2018-01-14T02:43:10.120Z,89.50
2018-01-14T02:43:41.665Z,89.40
2018-01-14T02:44:13.208Z,89.40
2018-01-14T02:44:44.776Z,89.50
2018-01-14T02:45:16.366Z,89.50
2018-01-14T02:45:47.922Z,89.60
2018-01-14T02:46:22.794Z,89.40
2018-01-14T02:46:54.392Z,89.60
2018-01-14T02:47:25.976Z,89.70
2018-01-14T02:47:57.567Z,90.00
2018-01-14T02:48:29.132Z,90.20
2018-01-14T02:49:00.698Z,90.10
2018-01-14T02:49:32.259Z,89.90
2018-01-14T02:50:03.851Z,90.00
2018-01-14T02:50:35.410Z,89.90
2018-01-14T02:51:07.006Z,89.80
2018-01-14T02:51:38.578Z,89.80
2018-01-14T02:52:10.128Z,89.90
2018-01-14T02:52:41.693Z,89.80
2018-01-14T02:53:13.272Z,89.70
2018-01-14T02:53:44.844Z,89.60
2018-01-14T02:54:16.416Z,89.50
2018-01-14T02:54:48.011Z,89.30
2018-01-14T02:55:19.562Z,89.30
2018-01-14T02:55:51.134Z,89.50
2018-01-14T02:56:22.710Z,89.40
2018-01-14T02:56:54.272Z,89.40
2018-01-14T02:57:25.872Z,89.40
2018-01-14T02:57:57.426Z,89.50
2018-01-14T02:58:29.008Z,89.30
2018-01-14T02:59:00.600Z,89.20
2018-01-14T02:59:32.180Z,89.20
2018-01-14T03:00:03.774Z,89.20
2018-01-14T03:00:35.368Z,89.00
2018-01-14T03:01:06.936Z,89.00
2018-01-14T03:01:38.492Z,89.60
2018-01-14T03:02:10.040Z,89.40
2018-01-14T03:02:41.607Z,89.50
2018-01-14T03:03:13.180Z,89.60
2018-01-14T03:03:44.785Z,89.50
2018-01-14T03:04:16.354Z,89.30
2018-01-14T03:04:47.932Z,89.20
2018-01-14T03:05:19.488Z,89.30
2018-01-14T03:05:51.070Z,89.30
2018-01-14T03:06:22.632Z,89.30
2018-01-14T03:06:54.176Z,88.80
2018-01-14T03:07:25.732Z,89.10
2018-01-14T03:07:57.306Z,89.30
2018-01-14T03:08:28.848Z,89.30
2018-01-14T03:09:00.406Z,89.30
2018-01-14T03:09:31.964Z,89.10
2018-01-14T03:10:03.532Z,89.00
2018-01-14T03:10:35.086Z,88.90
2018-01-14T03:11:06.644Z,88.80
2018-01-14T03:11:38.660Z,88.80
2018-01-14T03:12:10.222Z,89.00
2018-01-14T03:12:41.796Z,88.90
2018-01-14T03:13:13.340Z,88.70
2018-01-14T03:13:44.934Z,88.60
2018-01-14T03:14:16.519Z,88.40
2018-01-14T03:14:48.084Z,88.50
2018-01-14T03:15:19.652Z,88.60
2018-01-14T03:15:51.216Z,88.30
2018-01-14T03:16:22.764Z,88.40
2018-01-14T03:16:54.312Z,88.60
2018-01-14T03:17:25.862Z,88.70
2018-01-14T03:17:57.442Z,88.70
2018-01-14T03:18:28.988Z,88.60
2018-01-14T03:19:00.547Z,88.50
2018-01-14T03:19:32.106Z,88.50
2018-01-14T03:20:03.676Z,88.60
2018-01-14T03:20:35.233Z,88.10
2018-01-14T03:21:06.768Z,88.50
2018-01-14T03:21:38.343Z,88.50
2018-01-14T03:22:09.892Z,88.70
2018-01-14T03:22:41.454Z,89.00
2018-01-14T03:23:12.999Z,88.80
2018-01-14T03:23:44.580Z,88.70
2018-01-14T03:24:16.160Z,88.90
2018-01-14T03:24:47.766Z,88.80
2018-01-14T03:25:19.332Z,88.80
2018-01-14T03:25:50.890Z,88.90
2018-01-14T03:26:22.452Z,88.60
2018-01-14T03:26:54.012Z,88.60
2018-01-14T03:27:25.548Z,88.60
2018-01-14T03:27:57.118Z,88.60
2018-01-14T03:28:28.684Z,88.60
2018-01-14T03:29:00.224Z,88.60
2018-01-14T03:29:31.808Z,88.60
2018-01-14T03:30:03.381Z,88.60
2018-01-14T03:30:34.949Z,88.60
2018-01-14T03:31:06.520Z,88.60
2018-01-14T03:31:38.146Z,88.40
2018-01-14T03:32:09.715Z,88.30
2018-01-14T03:32:41.262Z,88.40
2018-01-14T03:33:12.807Z,88.20
2018-01-14T03:33:44.358Z,88.30
2018-01-14T03:34:15.898Z,88.40
2018-01-14T03:34:47.447Z,88.30
2018-01-14T03:35:19.056Z,88.40
2018-01-14T03:35:50.608Z,88.30
2018-01-14T03:36:22.170Z,88.30
2018-01-14T03:36:53.711Z,88.40
2018-01-14T03:37:25.254Z,88.30
2018-01-14T03:37:56.800Z,88.20
2018-01-14T03:38:28.348Z,88.40
2018-01-14T03:38:59.912Z,88.60
2018-01-14T03:39:31.451Z,88.60
2018-01-14T03:40:03.017Z,88.80
2018-01-14T03:40:34.583Z,88.80
2018-01-14T03:41:06.151Z,88.70
2018-01-14T03:41:37.704Z,88.70
2018-01-14T03:42:09.266Z,88.50
2018-01-14T03:42:40.796Z,88.70
2018-01-14T03:43:12.362Z,88.80
2018-01-14T03:43:43.894Z,88.50
2018-01-14T03:44:15.448Z,88.40
2018-01-14T03:44:47.030Z,88.00
2018-01-14T03:45:18.595Z,88.30
2018-01-14T03:45:50.148Z,88.20
2018-01-14T03:46:21.696Z,88.00
2018-01-14T03:46:53.240Z,88.20
2018-01-14T03:47:24.787Z,88.10
2018-01-14T03:47:56.342Z,88.10
2018-01-14T03:48:27.898Z,88.00
2018-01-14T03:48:59.458Z,88.00
2018-01-14T03:49:30.999Z,87.90
2018-01-14T03:50:02.602Z,87.90
2018-01-14T03:50:34.144Z,88.10
2018-01-14T03:51:05.750Z,88.30
2018-01-14T03:51:37.292Z,88.10
2018-01-14T03:52:08.836Z,88.00
2018-01-14T03:52:40.392Z,88.10
2018-01-14T03:53:11.940Z,88.10
2018-01-14T03:53:43.504Z,87.90
2018-01-14T03:54:15.066Z,87.90
2018-01-14T03:54:46.612Z,87.70
2018-01-14T03:55:18.164Z,87.70
2018-01-14T03:55:49.710Z,87.70
2018-01-14T03:56:21.264Z,87.70
2018-01-14T03:56:52.800Z,87.80
2018-01-14T03:57:24.375Z,87.70
2018-01-14T03:57:55.930Z,87.50
2018-01-14T03:58:27.470Z,87.60
2018-01-14T03:58:59.026Z,88.00
2018-01-14T03:59:30.588Z,88.00
2018-01-14T04:00:02.175Z,87.90
2018-01-14T04:00:33.748Z,88.00
2018-01-14T04:01:05.312Z,88.10
2018-01-14T04:01:36.849Z,88.00
2018-01-14T04:02:08.396Z,87.80
2018-01-14T04:02:39.956Z,87.80
2018-01-14T04:03:11.520Z,87.60
2018-01-14T04:03:43.085Z,87.60
2018-01-14T04:04:14.652Z,87.70
2018-01-14T04:04:46.200Z,87.40
2018-01-14T04:05:17.793Z,87.50
2018-01-14T04:05:49.344Z,87.30
2018-01-14T04:06:20.882Z,87.40
2018-01-14T04:06:52.447Z,87.60
2018-01-14T04:07:24.020Z,87.30
2018-01-14T04:07:55.568Z,87.50
2018-01-14T04:08:27.096Z,87.50
2018-01-14T04:08:58.642Z,87.30
2018-01-14T04:09:30.196Z,87.40
2018-01-14T04:10:01.752Z,87.30
2018-01-14T04:10:33.324Z,87.30
2018-01-14T04:11:04.906Z,87.00
2018-01-14T04:11:36.453Z,86.90
2018-01-14T04:12:08.026Z,86.90
2018-01-14T04:12:39.574Z,87.10
2018-01-14T04:13:11.120Z,87.10
2018-01-14T04:13:42.668Z,87.20
2018-01-14T04:14:14.226Z,87.10
2018-01-14T04:14:45.782Z,87.20
2018-01-14T04:15:17.364Z,87.30
2018-01-14T04:15:48.906Z,87.50
2018-01-14T04:16:20.502Z,87.20
2018-01-14T04:16:52.016Z,87.70
2018-01-14T04:17:23.593Z,87.60
2018-01-14T04:17:55.223Z,87.60
2018-01-14T04:18:26.804Z,87.50
2018-01-14T04:18:58.374Z,87.60
2018-01-14T04:19:29.943Z,87.10
2018-01-14T04:20:01.504Z,87.10
2018-01-14T04:20:33.072Z,87.00
2018-01-14T04:21:04.618Z,87.00
2018-01-14T04:21:36.176Z,87.10
2018-01-14T04:22:07.736Z,86.90
2018-01-14T04:22:39.315Z,87.00
2018-01-14T04:23:10.840Z,87.30
2018-01-14T04:23:42.403Z,87.10
2018-01-14T04:24:13.936Z,87.20
2018-01-14T04:24:45.496Z,87.10
2018-01-14T04:25:17.046Z,87.10
2018-01-14T04:25:48.591Z,87.00
2018-01-14T04:26:20.133Z,87.30
2018-01-14T04:26:51.699Z,87.50
2018-01-14T04:27:23.258Z,87.70
2018-01-14T04:27:54.821Z,87.50
2018-01-14T04:28:26.394Z,87.60
2018-01-14T04:28:57.948Z,87.40
2018-01-14T04:29:29.507Z,87.50
2018-01-14T04:30:01.074Z,86.80
2018-01-14T04:30:32.682Z,87.20
2018-01-14T04:31:04.228Z,87.40
2018-01-14T04:31:35.762Z,87.50
2018-01-14T04:32:07.292Z,87.50
2018-01-14T04:32:38.854Z,87.40
2018-01-14T04:33:10.428Z,87.40
2018-01-14T04:33:41.984Z,87.40
2018-01-14T04:34:13.540Z,87.30
2018-01-14T04:34:45.096Z,87.50
2018-01-14T04:35:16.636Z,87.40
2018-01-14T04:35:48.186Z,87.50
2018-01-14T04:36:19.760Z,87.50
2018-01-14T04:36:51.314Z,87.70
2018-01-14T04:37:22.901Z,87.30
2018-01-14T04:37:54.453Z,87.30
2018-01-14T04:38:26.044Z,87.60
2018-01-14T04:38:57.591Z,87.20
2018-01-14T04:39:29.160Z,87.10
2018-01-14T04:40:00.702Z,87.50
2018-01-14T04:40:32.266Z,87.40
2018-01-14T04:41:03.846Z,87.30
2018-01-14T04:41:35.420Z,87.40
2018-01-14T04:42:06.980Z,87.30
2018-01-14T04:42:38.516Z,87.40
2018-01-14T04:43:10.075Z,87.30
2018-01-14T04:43:41.631Z,87.30
2018-01-14T04:44:13.188Z,87.30
2018-01-14T04:44:44.766Z,87.30
2018-01-14T04:45:16.324Z,87.20
2018-01-14T04:45:47.868Z,87.30
2018-01-14T04:46:19.409Z,87.30
2018-01-14T04:46:51.054Z,87.40
2018-01-14T04:47:22.591Z,87.20
2018-01-14T04:47:54.142Z,87.20
2018-01-14T04:48:25.698Z,87.10
2018-01-14T04:48:57.271Z,87.10
2018-01-14T04:49:28.805Z,86.90
2018-01-14T04:50:00.347Z,86.90
2018-01-14T04:50:31.898Z,87.10
2018-01-14T04:51:03.472Z,87.10
2018-01-14T04:51:35.016Z,87.10
2018-01-14T04:52:06.560Z,87.00
2018-01-14T04:52:38.116Z,87.10
2018-01-14T04:53:09.682Z,87.30
2018-01-14T04:53:41.242Z,87.20
2018-01-14T04:54:12.808Z,87.10
2018-01-14T04:54:44.344Z,87.10
2018-01-14T04:55:15.888Z,87.00
2018-01-14T04:55:47.444Z,87.10
2018-01-14T04:56:18.988Z,87.30
2018-01-14T04:56:50.538Z,87.00
2018-01-14T04:57:22.102Z,87.30
2018-01-14T04:57:53.643Z,87.40
2018-01-14T04:58:25.214Z,87.50
2018-01-14T04:58:56.797Z,87.60
2018-01-14T04:59:28.392Z,87.40
2018-01-14T04:59:59.962Z,87.60
2018-01-14T05:00:31.534Z,87.70
2018-01-14T05:01:03.107Z,87.60
2018-01-14T05:01:34.660Z,87.50
2018-01-14T05:02:06.224Z,87.30
2018-01-14T05:02:37.774Z,87.30
2018-01-14T05:03:09.341Z,87.70
2018-01-14T05:03:40.884Z,87.70
2018-01-14T05:04:12.446Z,87.50
2018-01-14T05:04:44.002Z,87.40
2018-01-14T05:05:15.558Z,87.30
2018-01-14T05:05:47.116Z,87.40
2018-01-14T05:06:18.666Z,87.40
2018-01-14T05:06:50.225Z,87.40
2018-01-14T05:07:21.763Z,87.40
2018-01-14T05:07:53.316Z,87.30
2018-01-14T05:08:24.864Z,87.30
2018-01-14T05:08:56.424Z,87.50
2018-01-14T05:09:27.960Z,87.20
2018-01-14T05:09:59.504Z,87.30
2018-01-14T05:10:31.065Z,87.30
2018-01-14T05:11:02.646Z,87.00
2018-01-14T05:11:34.182Z,87.20
2018-01-14T05:12:05.755Z,86.90
2018-01-14T05:12:37.309Z,87.10
2018-01-14T05:13:08.842Z,87.20
2018-01-14T05:13:40.404Z,87.00
2018-01-14T05:14:11.976Z,86.60
2018-01-14T05:14:43.516Z,86.90
2018-01-14T05:15:15.084Z,87.20
2018-01-14T05:15:46.636Z,86.90
2018-01-14T05:16:18.182Z,87.00
2018-01-14T05:16:49.766Z,87.00
2018-01-14T05:17:21.318Z,86.90
2018-01-14T05:17:52.864Z,87.00
2018-01-14T05:18:24.441Z,87.00
2018-01-14T05:18:55.992Z,86.90
2018-01-14T05:19:27.547Z,86.90
2018-01-14T05:19:59.105Z,87.00
2018-01-14T05:20:30.647Z,87.00
2018-01-14T05:21:02.202Z,86.70
2018-01-14T05:21:33.736Z,86.70
2018-01-14T05:22:05.287Z,86.70
2018-01-14T05:22:36.860Z,86.90
2018-01-14T05:23:08.396Z,87.00
2018-01-14T05:23:39.954Z,87.00
2018-01-14T05:24:11.520Z,86.90
2018-01-14T05:24:43.068Z,86.70
2018-01-14T05:25:14.657Z,86.70
2018-01-14T05:25:46.220Z,86.90
2018-01-14T05:26:17.787Z,86.70
2018-01-14T05:26:49.324Z,86.70
2018-01-14T05:27:20.882Z,86.90
2018-01-14T05:27:52.438Z,86.50
2018-01-14T05:28:23.984Z,86.80
2018-01-14T05:28:55.508Z,86.80
2018-01-14T05:29:27.040Z,86.80
2018-01-14T05:29:58.592Z,86.80
2018-01-14T05:30:30.128Z,86.50
2018-01-14T05:31:01.700Z,86.50
2018-01-14T05:31:33.347Z,86.20
2018-01-14T05:32:04.911Z,86.60
2018-01-14T05:32:36.466Z,86.70
2018-01-14T05:33:08.021Z,86.40
2018-01-14T05:33:39.570Z,86.70
2018-01-14T05:34:11.124Z,86.70
2018-01-14T05:34:42.681Z,86.80
2018-01-14T05:35:14.224Z,87.00
2018-01-14T05:35:45.774Z,87.00
2018-01-14T05:36:17.369Z,86.60
2018-01-14T05:36:48.926Z,86.40
2018-01-14T05:37:20.483Z,86.60
2018-01-14T05:37:52.046Z,86.80
2018-01-14T05:38:23.588Z,86.70
2018-01-14T05:38:55.131Z,86.70
2018-01-14T05:39:26.708Z,86.70
2018-01-14T05:39:58.302Z,86.90
2018-01-14T05:40:29.843Z,86.80
2018-01-14T05:41:01.384Z,87.00
2018-01-14T05:41:32.963Z,86.80
2018-01-14T05:42:04.511Z,86.50
2018-01-14T05:42:36.072Z,86.70
2018-01-14T05:43:07.632Z,86.90
2018-01-14T05:43:39.194Z,86.90
2018-01-14T05:44:10.736Z,87.00
2018-01-14T05:44:42.288Z,87.30
2018-01-14T05:45:13.836Z,87.20
2018-01-14T05:45:45.386Z,87.10
2018-01-14T05:46:16.950Z,87.10
2018-01-14T05:46:48.546Z,87.00
2018-01-14T05:47:20.148Z,86.80
2018-01-14T05:47:51.690Z,86.80
2018-01-14T05:48:23.268Z,86.70
2018-01-14T05:48:54.830Z,86.70
2018-01-14T05:49:26.367Z,86.70
2018-01-14T05:49:57.924Z,86.40
2018-01-14T05:50:29.460Z,86.50
2018-01-14T05:51:00.996Z,86.40
2018-01-14T05:51:32.554Z,86.60
2018-01-14T05:52:04.115Z,86.60
2018-01-14T05:52:35.680Z,86.40
2018-01-14T05:53:07.219Z,86.50
2018-01-14T05:53:38.778Z,86.50
2018-01-14T05:54:10.339Z,86.30
2018-01-14T05:54:41.897Z,86.30
2018-01-14T05:55:13.463Z,86.40
2018-01-14T05:55:45.018Z,86.50
2018-01-14T05:56:16.556Z,86.60
2018-01-14T05:56:48.126Z,86.50
2018-01-14T05:57:19.680Z,86.60
2018-01-14T05:57:51.199Z,86.80
2018-01-14T05:58:22.754Z,86.80
2018-01-14T05:58:54.300Z,86.80
2018-01-14T05:59:25.853Z,86.70
2018-01-14T05:59:57.390Z,86.50
2018-01-14T06:00:28.956Z,86.40
2018-01-14T06:01:00.528Z,86.10
2018-01-14T06:01:32.089Z,86.30
2018-01-14T06:02:03.639Z,86.40
2018-01-14T06:02:35.181Z,86.60
2018-01-14T06:03:06.727Z,86.50
2018-01-14T06:03:38.276Z,86.70
2018-01-14T06:04:09.841Z,86.70
2018-01-14T06:04:41.420Z,86.60
2018-01-14T06:05:13.002Z,86.60
2018-01-14T06:05:44.556Z,86.70
2018-01-14T06:06:16.112Z,86.60
2018-01-14T06:06:47.651Z,86.70
2018-01-14T06:07:19.240Z,86.60
2018-01-14T06:07:50.824Z,86.60
2018-01-14T06:08:22.425Z,86.40
2018-01-14T06:08:53.984Z,86.60
2018-01-14T06:09:25.554Z,86.50
2018-01-14T06:09:57.112Z,86.50
2018-01-14T06:10:28.676Z,86.40
2018-01-14T06:11:00.250Z,86.20
2018-01-14T06:11:31.827Z,86.40
2018-01-14T06:12:03.404Z,86.50
2018-01-14T06:12:34.966Z,86.60
2018-01-14T06:13:06.567Z,86.50
2018-01-14T06:13:38.124Z,86.40
2018-01-14T06:14:09.686Z,86.70
2018-01-14T06:14:41.236Z,86.70
2018-01-14T06:15:12.792Z,86.70
2018-01-14T06:15:44.420Z,86.70
2018-01-14T06:16:15.970Z,86.50
2018-01-14T06:16:47.536Z,86.60
2018-01-14T06:17:19.100Z,86.40
2018-01-14T06:17:50.679Z,86.50
2018-01-14T06:18:22.251Z,86.50
2018-01-14T06:18:53.802Z,86.70
2018-01-14T06:19:25.362Z,86.30
2018-01-14T06:19:56.920Z,86.30
2018-01-14T06:20:28.482Z,86.10
2018-01-14T06:21:00.056Z,86.20
2018-01-14T06:21:31.621Z,86.40
2018-01-14T06:22:03.183Z,86.70
2018-01-14T06:22:34.756Z,86.60
2018-01-14T06:23:06.320Z,86.60
2018-01-14T06:23:37.887Z,86.50
2018-01-14T06:24:09.440Z,86.30
2018-01-14T06:24:41.010Z,86.40
2018-01-14T06:25:12.592Z,86.30
2018-01-14T06:25:44.159Z,86.20
2018-01-14T06:26:15.724Z,86.00
2018-01-14T06:26:47.283Z,86.30
2018-01-14T06:27:18.862Z,86.10
2018-01-14T06:27:50.509Z,85.90
2018-01-14T06:28:22.098Z,86.30
2018-01-14T06:28:53.672Z,86.50
2018-01-14T06:29:25.234Z,86.40
2018-01-14T06:29:56.890Z,86.50
2018-01-14T06:30:28.490Z,86.40
2018-01-14T06:31:00.056Z,86.40
2018-01-14T06:31:31.637Z,85.90
2018-01-14T06:32:03.196Z,86.00
2018-01-14T06:32:34.752Z,86.00
2018-01-14T06:33:06.337Z,86.00
2018-01-14T06:33:37.906Z,86.20
2018-01-14T06:34:09.472Z,86.40
2018-01-14T06:34:41.034Z,86.50
2018-01-14T06:35:12.578Z,86.70
2018-01-14T06:35:44.142Z,86.50
2018-01-14T06:36:15.724Z,86.60
2018-01-14T06:36:47.289Z,86.50
2018-01-14T06:37:18.850Z,86.50
2018-01-14T06:37:50.401Z,86.10
2018-01-14T06:38:21.980Z,86.20
2018-01-14T06:38:53.524Z,86.20
2018-01-14T06:39:25.100Z,86.50
2018-01-14T06:39:56.665Z,86.30
2018-01-14T06:40:28.232Z,86.60
2018-01-14T06:40:59.800Z,86.60
2018-01-14T06:41:31.367Z,86.60
2018-01-14T06:42:02.948Z,86.60
2018-01-14T06:42:34.493Z,86.60
2018-01-14T06:43:06.063Z,86.60
2018-01-14T06:43:37.612Z,86.70
2018-01-14T06:44:09.160Z,86.50
2018-01-14T06:44:40.724Z,86.60
2018-01-14T06:45:12.291Z,86.70
2018-01-14T06:45:43.858Z,86.60
2018-01-14T06:46:15.424Z,86.60